createdAt,value
2023-02-26T00:01:19.688Z,135.50
2023-02-26T00:08:21.364Z,126.47
2023-02-26T00:15:23.325Z,120.10
2023-02-26T00:22:25.220Z,124.18
2023-02-26T00:29:27.050Z,137.57
2023-02-26T00:36:52.819Z,140.52
2023-02-26T00:43:54.562Z,157.52
2023-02-26T00:51:00.144Z,157.00
2023-02-26T00:58:01.714Z,139.15
2023-02-26T01:05:05.085Z,141.35
2023-02-26T01:12:08.988Z,145.82
2023-02-26T01:19:49.526Z,115.88
2023-02-26T01:26:51.428Z,112.50
2023-02-26T01:33:58.919Z,113.07
2023-02-26T01:41:31.760Z,126.97
2023-02-26T01:48:51.676Z,129.80
2023-02-26T01:56:01.937Z,128.68
2023-02-26T02:03:03.660Z,132.85
2023-02-26T02:10:06.928Z,133.35
2023-02-26T02:17:27.171Z,142.88
2023-02-26T02:25:02.693Z,148.10
2023-02-26T02:32:11.880Z,182.43
2023-02-26T02:39:16.880Z,175.07
2023-02-26T02:46:24.749Z,169.25
2023-02-26T02:53:40.379Z,167.18
2023-02-26T03:00:48.159Z,169.00
2023-02-26T03:08:02.296Z,197.38
2023-02-26T03:15:04.274Z,154.00
2023-02-26T03:22:18.142Z,164.10
2023-02-26T03:29:55.599Z,178.43
2023-02-26T03:37:00.876Z,162.07
2023-02-26T03:44:35.633Z,139.35
2023-02-26T03:51:38.249Z,139.77
2023-02-26T03:58:59.750Z,135.70
2023-02-26T04:06:16.638Z,137.88
2023-02-26T04:13:18.549Z,137.02
2023-02-26T04:20:21.070Z,134.38
2023-02-26T04:27:22.750Z,135.85
2023-02-26T04:34:24.621Z,143.35
2023-02-26T04:41:27.353Z,140.98
2023-02-26T04:48:29.231Z,142.77
2023-02-26T04:55:30.981Z,152.13
2023-02-26T05:02:33.536Z,155.52
2023-02-26T05:09:35.446Z,161.40
2023-02-26T05:16:36.991Z,156.52
2023-02-26T05:23:38.559Z,163.63
2023-02-26T05:30:40.586Z,158.57
2023-02-26T05:37:42.344Z,154.90
2023-02-26T05:44:43.886Z,155.90
2023-02-26T05:51:45.466Z,161.65
2023-02-26T05:58:47.040Z,162.75
2023-02-26T06:05:48.562Z,168.32
2023-02-26T06:12:50.527Z,169.13
2023-02-26T06:19:52.141Z,167.07
2023-02-26T06:26:53.753Z,168.30
2023-02-26T06:33:55.307Z,176.05
2023-02-26T06:40:56.852Z,179.82
2023-02-26T06:47:58.485Z,181.40
2023-02-26T06:55:00.083Z,178.55
2023-02-26T07:02:01.762Z,177.05
2023-02-26T07:09:03.428Z,185.15
2023-02-26T07:16:07.171Z,201.73
2023-02-26T07:23:08.851Z,215.15
2023-02-26T07:30:11.104Z,220.77
2023-02-26T07:37:12.652Z,215.57
2023-02-26T07:44:14.170Z,242.60
2023-02-26T07:51:15.655Z,219.88
2023-02-26T07:58:17.608Z,215.00
2023-02-26T08:05:19.130Z,205.00
2023-02-26T08:12:20.670Z,181.32
2023-02-26T08:19:22.193Z,167.95
2023-02-26T08:26:24.253Z,69.53
2023-02-26T08:33:25.914Z,156.18
2023-02-26T08:40:28.504Z,27.80
2023-02-26T08:47:30.034Z,21.60
2023-02-26T08:54:32.134Z,29.80
2023-02-26T09:01:33.667Z,91.30
2023-02-26T09:08:35.319Z,21.70
2023-02-26T09:15:37.055Z,23.63
2023-02-26T09:22:38.694Z,7.75
2023-02-26T09:29:40.240Z,23.80
2023-02-26T09:36:43.681Z,8.15
2023-02-26T09:44:30.663Z,7.60
2023-02-26T09:51:32.286Z,16.73
2023-02-26T09:58:36.329Z,21.67
2023-02-26T10:05:46.320Z,59.97
2023-02-26T10:12:48.705Z,300.33
2023-02-26T10:19:54.270Z,89.97
2023-02-26T10:27:18.479Z,59.05
2023-02-26T10:34:36.417Z,54.97
2023-02-26T10:41:38.106Z,66.45
2023-02-26T10:48:42.529Z,47.85
2023-02-26T10:55:47.016Z,47.67
2023-02-26T11:02:51.856Z,47.97
2023-02-26T11:09:54.721Z,42.13
2023-02-26T11:16:57.593Z,50.38
2023-02-26T11:24:02.155Z,56.28
2023-02-26T11:31:08.056Z,49.58
2023-02-26T11:38:17.144Z,52.03
2023-02-26T11:45:19.470Z,55.63
2023-02-26T11:52:20.985Z,51.45
2023-02-26T11:59:24.184Z,42.58
2023-02-26T12:06:25.774Z,97.18
2023-02-26T12:13:49.239Z,212.90
2023-02-26T12:21:00.000Z,260.60
2023-02-26T12:28:39.333Z,280.50
2023-02-26T12:35:53.294Z,204.07
2023-02-26T12:43:07.944Z,264.38
2023-02-26T12:50:32.736Z,192.18
2023-02-26T12:57:37.443Z,226.73
2023-02-26T13:05:00.514Z,199.63
2023-02-26T13:12:20.429Z,189.82
2023-02-26T13:19:43.134Z,158.60
2023-02-26T13:26:44.914Z,161.63
2023-02-26T13:33:46.618Z,197.73
2023-02-26T13:40:56.926Z,190.23
2023-02-26T13:48:11.667Z,200.77
2023-02-26T13:55:41.741Z,160.18
2023-02-26T14:02:51.476Z,142.50
2023-02-26T14:10:00.976Z,128.50
2023-02-26T14:17:08.538Z,131.45
2023-02-26T14:24:10.084Z,129.73
2023-02-26T14:31:11.717Z,123.65
2023-02-26T14:38:30.704Z,178.38
2023-02-26T14:45:37.101Z,186.38
2023-02-26T14:53:15.832Z,160.07
2023-02-26T15:00:32.160Z,131.52
2023-02-26T15:08:13.014Z,167.95
2023-02-26T15:15:36.676Z,97.20
2023-02-26T15:22:52.226Z,131.85
2023-02-26T15:29:53.876Z,183.60
2023-02-26T15:36:58.139Z,86.10
2023-02-26T15:44:02.820Z,120.50
2023-02-26T15:51:06.629Z,180.73
2023-02-26T15:58:08.497Z,261.00
2023-02-26T16:05:13.240Z,118.68
2023-02-26T16:12:21.362Z,144.93
2023-02-26T16:19:33.779Z,179.98
2023-02-26T16:26:40.749Z,223.02
2023-02-26T16:33:43.030Z,260.02
2023-02-26T16:40:45.223Z,277.33
2023-02-26T16:47:49.472Z,181.23
2023-02-26T16:54:57.376Z,195.65
2023-02-26T17:02:18.441Z,229.10
2023-02-26T17:09:42.823Z,232.30
2023-02-26T17:16:44.978Z,212.13
2023-02-26T17:23:46.660Z,228.57
2023-02-26T17:30:48.388Z,215.80
2023-02-26T17:37:52.138Z,169.52
2023-02-26T17:44:55.362Z,132.45
2023-02-26T17:51:57.409Z,124.78
2023-02-26T17:58:59.722Z,132.02
2023-02-26T18:06:01.985Z,162.63
2023-02-26T18:13:04.162Z,248.00
2023-02-26T18:20:13.459Z,32.17
2023-02-26T18:27:16.667Z,19.77
2023-02-26T18:34:18.214Z,36.22
2023-02-26T18:41:19.957Z,41.80
2023-02-26T18:48:21.647Z,44.85
2023-02-26T18:55:23.288Z,50.22
2023-02-26T19:02:24.969Z,53.22
2023-02-26T19:09:28.711Z,54.17
2023-02-26T19:16:34.952Z,50.15
2023-02-26T19:23:36.566Z,45.08
2023-02-26T19:30:39.707Z,43.88
2023-02-26T19:37:41.431Z,72.55
2023-02-26T19:44:43.079Z,82.07
2023-02-26T19:51:45.069Z,64.43
2023-02-26T19:58:46.704Z,95.80
2023-02-26T20:05:48.293Z,84.20
2023-02-26T20:12:50.173Z,93.15
2023-02-26T20:19:51.797Z,87.25
2023-02-26T20:26:53.524Z,65.75
2023-02-26T20:33:55.499Z,49.28
2023-02-26T20:40:57.080Z,54.28
2023-02-26T20:47:58.710Z,83.60
2023-02-26T20:55:00.267Z,105.70
2023-02-26T21:02:02.034Z,104.60
2023-02-26T21:09:04.151Z,109.60
2023-02-26T21:16:05.897Z,90.68
2023-02-26T21:23:07.588Z,126.47
2023-02-26T21:30:10.147Z,130.55
2023-02-26T21:37:11.897Z,99.55
2023-02-26T21:44:13.417Z,83.22
2023-02-26T21:51:15.607Z,86.18
2023-02-26T21:58:17.222Z,93.68
2023-02-26T22:05:18.912Z,90.38
2023-02-26T22:12:20.600Z,105.75
2023-02-26T22:19:22.266Z,119.43
2023-02-26T22:26:24.275Z,137.27
2023-02-26T22:33:26.340Z,128.32
2023-02-26T22:40:27.938Z,126.13
2023-02-26T22:47:29.664Z,145.63
2023-02-26T22:54:32.059Z,155.18
2023-02-26T23:01:33.779Z,144.23
2023-02-26T23:08:35.472Z,142.27
2023-02-26T23:15:37.237Z,143.98
2023-02-26T23:22:38.976Z,147.27
2023-02-26T23:29:42.326Z,140.32
2023-02-26T23:36:43.880Z,136.82
2023-02-26T23:43:45.416Z,130.23
2023-02-26T23:50:50.144Z,134.98
2023-02-26T23:57:51.743Z,141.88
